Time;durP1;ratioP1;P1;durP2;ratioP2;P2;SDS_P1;SDS_P2;PMS_P1;PMS_P2;Temp;Humidity;BMP_temperature;BMP_pressure;BME280_temperature;BME280_humidity;BME280_pressure;Samples;Min_cycle;Max_cycle;Signal;HPM_P1;HPM_P2
2023/10/23 00:00:00;;;;;;;5.57;2.42;;;24.10;60.50;;;;;;6200556;28;80413;-64
2023/10/23 00:03:00;;;;;;;6.05;2.05;;;24.00;60.60;;;;;;6212068;28;80606;-66
2023/10/23 00:06:01;;;;;;;5.88;2.35;;;24.00;60.60;;;;;;6218742;27;80450;-60
2023/10/23 00:09:02;;;;;;;4.32;2.50;;;24.00;60.40;;;;;;6226120;27;80962;-60
2023/10/23 00:12:02;;;;;;;7.13;3.28;;;24.00;61.00;;;;;;6209004;27;81201;-59
2023/10/23 00:15:03;;;;;;;4.10;2.20;;;24.00;60.40;;;;;;6208455;28;83808;-59
2023/10/23 00:18:03;;;;;;;6.35;3.30;;;24.00;59.90;;;;;;6217507;28;80397;-60
2023/10/23 00:21:04;;;;;;;5.00;2.63;;;24.00;59.80;;;;;;6203894;28;81880;-60
2023/10/23 00:24:04;;;;;;;5.80;2.70;;;24.00;59.70;;;;;;6205058;28;80916;-61
2023/10/23 00:27:05;;;;;;;4.97;2.47;;;24.00;59.90;;;;;;6204388;28;82515;-59
2023/10/23 00:30:06;;;;;;;2.85;2.08;;;24.00;60.80;;;;;;6191654;28;81566;-60
2023/10/23 00:33:07;;;;;;;3.83;2.33;;;24.00;60.60;;;;;;6210695;27;80273;-59
2023/10/23 00:36:08;;;;;;;5.80;2.95;;;24.00;60.60;;;;;;6210766;27;80300;-60
2023/10/23 00:39:08;;;;;;;4.22;1.95;;;24.00;60.10;;;;;;6226752;27;80482;-60
2023/10/23 00:42:08;;;;;;;5.57;2.88;;;24.00;60.90;;;;;;6203635;28;83834;-59
2023/10/23 00:45:10;;;;;;;2.88;1.70;;;23.90;60.50;;;;;;6203911;28;81876;-62
2023/10/23 00:48:10;;;;;;;6.05;2.90;;;24.00;60.50;;;;;;6218668;28;80458;-63
2023/10/23 00:51:11;;;;;;;6.13;2.30;;;24.00;59.90;;;;;;6225880;28;80463;-63
2023/10/23 00:54:11;;;;;;;4.00;2.55;;;24.00;59.80;;;;;;6226416;28;81506;-63
2023/10/23 00:57:12;;;;;;;4.50;2.75;;;24.00;59.70;;;;;;6225007;27;80276;-61
2023/10/23 01:00:12;;;;;;;3.47;1.90;;;24.00;59.70;;;;;;6202919;28;80744;-62
2023/10/23 01:03:13;;;;;;;4.47;2.42;;;24.00;60.40;;;;;;6207414;28;81502;-68
2023/10/23 01:06:14;;;;;;;3.25;2.10;;;24.00;59.70;;;;;;6201776;28;80540;-69
2023/10/23 01:09:14;;;;;;;3.90;2.45;;;24.00;60.00;;;;;;6202331;28;80365;-69
2023/10/23 01:12:15;;;;;;;6.28;2.70;;;24.00;60.40;;;;;;6208836;27;81623;-68
2023/10/23 01:15:15;;;;;;;4.20;2.17;;;24.00;60.10;;;;;;6201520;28;80421;-67
2023/10/23 01:18:16;;;;;;;3.08;1.50;;;24.00;60.10;;;;;;6213629;28;81412;-66
2023/10/23 01:21:16;;;;;;;3.88;2.13;;;24.00;60.40;;;;;;6213227;28;81363;-60
2023/10/23 01:24:17;;;;;;;3.45;2.00;;;24.00;60.30;;;;;;6207230;28;80682;-60
2023/10/23 01:27:18;;;;;;;4.10;2.08;;;24.00;60.60;;;;;;6218544;28;80122;-61
2023/10/23 01:30:20;;;;;;;2.67;1.52;;;24.00;60.40;;;;;;6212743;28;80715;-60
2023/10/23 01:33:21;;;;;;;3.50;2.00;;;24.00;60.20;;;;;;6208320;27;80851;-60
2023/10/23 01:36:21;;;;;;;2.53;2.05;;;24.00;60.40;;;;;;6206499;28;81782;-60
2023/10/23 01:39:22;;;;;;;3.67;2.05;;;24.00;60.30;;;;;;6229113;27;80328;-60
2023/10/23 01:42:26;;;;;;;2.50;1.73;;;24.00;59.60;;;;;;6227581;27;80600;-60
2023/10/23 01:45:27;;;;;;;3.42;2.10;;;24.00;60.10;;;;;;6226492;27;81259;-59
2023/10/23 01:48:27;;;;;;;3.40;1.88;;;24.00;59.60;;;;;;6228114;27;80493;-59
2023/10/23 01:51:29;;;;;;;2.20;1.58;;;24.00;59.80;;;;;;6216823;28;81957;-60
2023/10/23 01:54:29;;;;;;;2.38;1.33;;;24.00;60.00;;;;;;6209539;28;81501;-60
2023/10/23 01:57:30;;;;;;;3.47;1.60;;;24.00;59.50;;;;;;6228130;27;80361;-65
2023/10/23 02:00:30;;;;;;;4.05;1.98;;;24.00;59.30;;;;;;6226745;27;80238;-66
2023/10/23 02:03:31;;;;;;;2.42;1.75;;;24.00;59.10;;;;;;6207095;28;92503;-66
2023/10/23 02:06:32;;;;;;;3.05;1.98;;;24.00;59.10;;;;;;6225631;28;83523;-65
2023/10/23 02:09:32;;;;;;;3.08;1.90;;;24.00;59.10;;;;;;6210949;28;80882;-65
2023/10/23 02:12:33;;;;;;;3.50;1.65;;;24.00;59.00;;;;;;6218547;28;80255;-65
2023/10/23 02:15:34;;;;;;;2.28;1.55;;;24.00;59.00;;;;;;6213224;28;82238;-67
2023/10/23 02:18:34;;;;;;;2.75;1.88;;;24.00;58.90;;;;;;6204549;28;80341;-66
2023/10/23 02:21:35;;;;;;;2.05;1.42;;;24.00;59.00;;;;;;6225982;28;83048;-66
2023/10/23 02:24:35;;;;;;;2.20;1.33;;;24.00;58.90;;;;;;6238223;28;81360;-66
2023/10/23 02:27:36;;;;;;;2.35;1.20;;;24.00;59.00;;;;;;6228590;27;80325;-65
2023/10/23 02:30:36;;;;;;;3.90;1.38;;;24.00;59.50;;;;;;6231316;27;81073;-68
2023/10/23 02:33:37;;;;;;;2.72;1.30;;;24.00;59.40;;;;;;6239586;27;81396;-65
2023/10/23 02:36:37;;;;;;;2.35;1.58;;;24.00;59.00;;;;;;6225309;28;83814;-68
2023/10/23 02:39:38;;;;;;;2.53;1.40;;;24.00;58.90;;;;;;6224575;27;86340;-65
2023/10/23 02:42:38;;;;;;;2.17;1.20;;;24.00;58.80;;;;;;6225761;28;81537;-64
2023/10/23 02:45:39;;;;;;;2.47;1.58;;;24.00;60.00;;;;;;6226690;27;80595;-64
2023/10/23 02:48:39;;;;;;;1.73;1.23;;;24.00;59.40;;;;;;6225113;28;80643;-65
2023/10/23 02:51:40;;;;;;;2.40;1.27;;;24.00;59.10;;;;;;6236942;27;81433;-69
2023/10/23 02:54:40;;;;;;;1.60;1.33;;;24.00;59.00;;;;;;6226243;27;83786;-67
2023/10/23 02:57:41;;;;;;;1.70;1.15;;;24.00;59.60;;;;;;6225093;28;80399;-68
2023/10/23 03:00:42;;;;;;;2.03;1.40;;;24.00;59.80;;;;;;6210669;28;83519;-67
2023/10/23 03:03:43;;;;;;;1.48;1.00;;;24.00;59.60;;;;;;6212906;28;83645;-68
2023/10/23 03:06:44;;;;;;;1.65;1.20;;;23.90;60.00;;;;;;6213644;27;80827;-67
2023/10/23 03:09:44;;;;;;;2.47;1.40;;;24.00;59.80;;;;;;6218143;28;82149;-62
2023/10/23 03:12:45;;;;;;;2.70;1.30;;;24.00;59.80;;;;;;6217583;28;83447;-60
2023/10/23 03:15:46;;;;;;;2.20;1.20;;;24.00;59.80;;;;;;6214038;28;80478;-60
2023/10/23 03:18:46;;;;;;;1.42;1.00;;;24.00;59.70;;;;;;6217237;28;81131;-59
2023/10/23 03:21:47;;;;;;;2.58;1.38;;;24.00;59.90;;;;;;6225508;28;81655;-59
2023/10/23 03:24:48;;;;;;;3.15;1.40;;;24.00;59.30;;;;;;6217433;27;82721;-58
2023/10/23 03:27:48;;;;;;;1.92;1.40;;;24.00;59.20;;;;;;6224899;28;81015;-59
2023/10/23 03:30:49;;;;;;;2.47;1.50;;;24.00;59.10;;;;;;6229890;28;80471;-59
2023/10/23 03:33:49;;;;;;;3.70;1.70;;;24.00;59.00;;;;;;6229313;28;81932;-59
2023/10/23 03:36:51;;;;;;;3.35;1.27;;;23.90;59.40;;;;;;6218371;28;81105;-63
2023/10/23 03:39:51;;;;;;;2.38;1.40;;;24.00;58.70;;;;;;6216794;28;80482;-60
2023/10/23 03:42:52;;;;;;;2.22;1.35;;;23.90;58.40;;;;;;6204088;28;80322;-60
2023/10/23 03:45:52;;;;;;;4.72;1.70;;;24.00;58.60;;;;;;6211605;27;81749;-59
2023/10/23 03:48:54;;;;;;;3.75;1.38;;;24.00;58.20;;;;;;6225469;28;80557;-65
2023/10/23 03:51:55;;;;;;;1.73;1.10;;;24.00;58.10;;;;;;6222654;27;80515;-67
2023/10/23 03:54:55;;;;;;;2.17;1.55;;;24.00;58.00;;;;;;6201921;28;80781;-64
2023/10/23 03:57:56;;;;;;;2.63;1.55;;;24.00;57.80;;;;;;6201755;28;80481;-67
2023/10/23 04:00:56;;;;;;;2.90;1.33;;;24.00;57.80;;;;;;6209957;28;80995;-68
2023/10/23 04:03:57;;;;;;;5.50;1.80;;;24.00;57.60;;;;;;6200984;28;80843;-67
2023/10/23 04:06:57;;;;;;;2.13;1.30;;;24.00;57.50;;;;;;6202863;28;81821;-61
2023/10/23 04:09:58;;;;;;;2.17;1.40;;;24.10;57.40;;;;;;6205725;27;81385;-62
2023/10/23 04:12:58;;;;;;;3.10;1.52;;;24.10;57.10;;;;;;6226775;28;80985;-69
2023/10/23 04:16:00;;;;;;;6.18;2.47;;;24.00;57.30;;;;;;6239492;27;82560;-66
2023/10/23 04:19:01;;;;;;;4.82;2.00;;;24.10;57.20;;;;;;6225042;27;80511;-71
2023/10/23 04:22:01;;;;;;;6.80;2.35;;;24.10;57.20;;;;;;6214272;28;80462;-58
2023/10/23 04:25:02;;;;;;;6.30;1.92;;;24.10;57.30;;;;;;6200982;28;80163;-62
2023/10/23 04:28:03;;;;;;;6.28;1.80;;;24.10;57.40;;;;;;6204254;28;81312;-64
2023/10/23 04:31:03;;;;;;;8.15;2.05;;;24.20;57.90;;;;;;6204496;28;80306;-62
2023/10/23 04:34:04;;;;;;;5.45;2.25;;;24.20;58.20;;;;;;6201176;28;80281;-65
2023/10/23 04:37:04;;;;;;;6.25;1.85;;;24.20;58.30;;;;;;6200913;28;80368;-66
2023/10/23 04:40:05;;;;;;;8.25;2.42;;;24.20;58.20;;;;;;6223595;27;80751;-62
2023/10/23 04:43:05;;;;;;;4.13;2.20;;;24.20;58.20;;;;;;6214890;28;81158;-63
2023/10/23 04:46:06;;;;;;;9.40;2.15;;;24.20;58.40;;;;;;6226046;27;80263;-62
2023/10/23 04:49:06;;;;;;;15.00;2.20;;;24.20;58.40;;;;;;6201475;28;81098;-63
2023/10/23 04:52:07;;;;;;;7.28;2.00;;;24.20;58.20;;;;;;6208572;27;80748;-64
2023/10/23 04:55:07;;;;;;;6.10;2.20;;;24.20;58.40;;;;;;6216431;28;81779;-60
2023/10/23 04:58:08;;;;;;;8.50;2.15;;;24.20;57.70;;;;;;6214097;28;80458;-60
2023/10/23 05:01:08;;;;;;;7.60;3.15;;;24.00;55.40;;;;;;6208099;28;81294;-63
2023/10/23 05:04:09;;;;;;;6.90;3.70;;;23.80;55.10;;;;;;6212200;28;83557;-61
2023/10/23 05:07:09;;;;;;;6.50;2.60;;;23.80;55.60;;;;;;6203227;28;81525;-62
2023/10/23 05:10:11;;;;;;;6.15;2.97;;;23.70;56.00;;;;;;6220074;27;81715;-61
2023/10/23 05:13:11;;;;;;;6.38;2.58;;;23.70;57.00;;;;;;6220677;28;80431;-61
2023/10/23 05:16:12;;;;;;;4.47;2.15;;;23.60;55.40;;;;;;6223146;27;80744;-62
2023/10/23 05:19:13;;;;;;;4.75;2.70;;;23.50;54.50;;;;;;6221559;28;80915;-61
2023/10/23 05:22:13;;;;;;;9.13;2.40;;;23.50;55.00;;;;;;6226493;28;80352;-61
2023/10/23 05:25:14;;;;;;;8.57;2.25;;;23.50;55.70;;;;;;6236928;27;80942;-61
2023/10/23 05:28:14;;;;;;;8.10;2.60;;;23.50;55.40;;;;;;6189233;28;81719;-61
2023/10/23 05:31:15;;;;;;;4.25;2.38;;;23.50;54.90;;;;;;6104899;28;82135;-59
2023/10/23 05:34:15;;;;;;;8.68;2.38;;;23.40;54.60;;;;;;6082777;28;82137;-63
2023/10/23 05:37:16;;;;;;;6.53;2.55;;;23.40;55.20;;;;;;6083767;28;82472;-62
2023/10/23 05:40:17;;;;;;;4.03;2.38;;;23.40;54.30;;;;;;6098168;27;80860;-62
2023/10/23 05:43:17;;;;;;;5.80;2.88;;;23.20;53.40;;;;;;6098353;28;85368;-62
2023/10/23 05:46:20;;;;;;;4.53;2.40;;;23.20;53.50;;;;;;6091072;27;81652;-63
2023/10/23 05:49:21;;;;;;;8.10;2.42;;;23.20;53.10;;;;;;6103308;27;81884;-61
2023/10/23 05:52:21;;;;;;;4.43;2.25;;;23.10;53.10;;;;;;6099399;27;81767;-62
2023/10/23 05:55:23;;;;;;;6.45;2.30;;;23.10;52.90;;;;;;6088204;28;81762;-69
2023/10/23 05:58:24;;;;;;;4.80;2.75;;;23.00;52.90;;;;;;6096679;28;82313;-70
2023/10/23 06:01:24;;;;;;;4.38;2.47;;;23.00;53.30;;;;;;6104570;28;81779;-70
2023/10/23 06:04:25;;;;;;;4.32;2.70;;;23.00;53.40;;;;;;6095167;28;82148;-66
2023/10/23 06:07:25;;;;;;;5.30;2.63;;;23.00;53.60;;;;;;6104544;27;82108;-69
2023/10/23 06:10:26;;;;;;;5.97;3.25;;;23.00;53.50;;;;;;6088876;27;82188;-69
2023/10/23 06:13:26;;;;;;;4.63;2.75;;;23.10;53.40;;;;;;6097862;28;81957;-67
2023/10/23 06:16:27;;;;;;;5.85;2.58;;;23.10;53.70;;;;;;6080916;28;82231;-70
2023/10/23 06:19:27;;;;;;;6.28;2.75;;;23.10;53.60;;;;;;6079890;28;84226;-69
2023/10/23 06:22:28;;;;;;;4.10;2.70;;;23.10;53.40;;;;;;6090318;28;82064;-70
2023/10/23 06:25:29;;;;;;;5.07;2.40;;;23.10;53.40;;;;;;6101548;27;81871;-70
2023/10/23 06:28:29;;;;;;;4.40;2.35;;;23.10;53.40;;;;;;6101153;27;83536;-70
2023/10/23 06:31:30;;;;;;;5.28;2.67;;;23.10;53.40;;;;;;6088360;28;83549;-69
2023/10/23 06:34:31;;;;;;;6.25;2.30;;;23.10;53.40;;;;;;6093920;28;82219;-72
2023/10/23 06:37:31;;;;;;;4.50;1.92;;;23.10;53.60;;;;;;6092886;27;80477;-71
2023/10/23 06:40:32;;;;;;;5.57;2.30;;;23.10;53.90;;;;;;6089427;28;87671;-71
2023/10/23 06:43:32;;;;;;;6.88;2.60;;;23.10;53.80;;;;;;6085908;28;80613;-65
2023/10/23 06:46:33;;;;;;;7.72;1.95;;;23.20;53.80;;;;;;6116230;27;82381;-60
2023/10/23 06:49:33;;;;;;;5.35;2.45;;;23.10;53.90;;;;;;6120261;28;83454;-62
2023/10/23 06:52:34;;;;;;;4.45;2.47;;;23.10;53.60;;;;;;6116843;27;81515;-65
2023/10/23 06:55:34;;;;;;;6.43;1.98;;;23.10;53.40;;;;;;6096164;27;82486;-67
2023/10/23 06:58:35;;;;;;;6.72;2.47;;;23.20;53.70;;;;;;6110346;27;83509;-61
2023/10/23 07:01:38;;;;;;;2.65;1.77;;;23.20;53.90;;;;;;6100559;28;81383;-66
2023/10/23 07:04:38;;;;;;;3.88;2.25;;;23.20;54.20;;;;;;6088911;28;80885;-66
2023/10/23 07:07:39;;;;;;;3.17;2.00;;;23.30;54.00;;;;;;6096288;28;82547;-67
2023/10/23 07:10:40;;;;;;;7.38;2.20;;;23.30;54.30;;;;;;6096910;28;82606;-65
2023/10/23 07:13:40;;;;;;;2.92;1.80;;;23.30;54.30;;;;;;6104682;27;82510;-65
2023/10/23 07:16:41;;;;;;;3.80;1.75;;;23.30;54.20;;;;;;6106984;27;81980;-64
2023/10/23 07:19:41;;;;;;;7.13;2.03;;;23.20;54.30;;;;;;6103136;27;82027;-64
2023/10/23 07:22:42;;;;;;;3.78;2.05;;;23.30;54.40;;;;;;6103380;27;86209;-64
2023/10/23 07:25:42;;;;;;;5.43;2.65;;;23.30;54.50;;;;;;6102800;27;82254;-64
2023/10/23 07:28:43;;;;;;;4.88;1.95;;;23.30;54.10;;;;;;6082842;28;81377;-66
2023/10/23 07:31:43;;;;;;;5.13;2.33;;;23.40;54.20;;;;;;6086913;28;82565;-66
2023/10/23 07:34:44;;;;;;;3.30;1.98;;;23.30;54.40;;;;;;6083567;28;82286;-66
2023/10/23 07:37:44;;;;;;;5.30;2.53;;;23.30;54.60;;;;;;6088599;28;80597;-67
2023/10/23 07:40:45;;;;;;;7.82;2.25;;;23.30;54.30;;;;;;6100359;28;82429;-67
2023/10/23 07:43:45;;;;;;;4.72;1.98;;;23.40;54.60;;;;;;6068188;28;83311;-66
2023/10/23 07:46:46;;;;;;;3.22;1.90;;;23.40;54.90;;;;;;6094468;28;81475;-66
2023/10/23 07:49:47;;;;;;;5.05;1.65;;;23.40;54.90;;;;;;6096084;28;81574;-66
2023/10/23 07:52:49;;;;;;;4.55;1.80;;;23.40;54.60;;;;;;6103918;27;81658;-68
2023/10/23 07:55:49;;;;;;;6.68;2.05;;;23.40;54.80;;;;;;6076316;27;86828;-65
2023/10/23 07:58:51;;;;;;;4.40;2.30;;;23.50;54.90;;;;;;6037404;28;85066;-65
2023/10/23 08:01:52;;;;;;;4.60;2.00;;;23.50;54.90;;;;;;6065644;28;84856;-65
2023/10/23 08:04:52;;;;;;;3.20;2.03;;;23.50;54.50;;;;;;6064573;28;81448;-70
2023/10/23 08:07:53;;;;;;;5.10;1.73;;;23.50;54.40;;;;;;6078024;28;83459;-70
2023/10/23 08:10:54;;;;;;;7.38;2.08;;;23.50;54.20;;;;;;6080990;27;82473;-70
2023/10/23 08:13:54;;;;;;;5.72;2.25;;;23.60;54.10;;;;;;6080117;28;82488;-71
2023/10/23 08:16:54;;;;;;;4.60;1.83;;;23.70;53.90;;;;;;6078920;28;82231;-68
2023/10/23 08:19:55;;;;;;;6.43;2.42;;;23.70;53.90;;;;;;6076770;28;87287;-67
2023/10/23 08:22:56;;;;;;;4.35;2.47;;;23.70;53.80;;;;;;6093985;28;81957;-65
2023/10/23 08:25:56;;;;;;;5.57;2.20;;;23.70;53.90;;;;;;6091985;28;85312;-65
2023/10/23 08:28:56;;;;;;;5.50;2.72;;;23.70;54.30;;;;;;6093087;28;82306;-65
2023/10/23 08:31:58;;;;;;;6.13;2.45;;;23.70;54.10;;;;;;6097670;27;86221;-65
2023/10/23 08:34:59;;;;;;;5.40;2.03;;;23.70;54.20;;;;;;6088090;27;83428;-65
2023/10/23 08:37:59;;;;;;;11.77;2.10;;;23.70;54.10;;;;;;6082827;28;81891;-65
2023/10/23 08:41:03;;;;;;;4.90;2.00;;;23.70;54.20;;;;;;6088674;28;82064;-60
2023/10/23 08:44:03;;;;;;;5.43;1.75;;;23.70;54.10;;;;;;6096152;28;82254;-62
2023/10/23 08:47:04;;;;;;;5.82;2.10;;;23.70;54.10;;;;;;6088093;28;81848;-62
2023/10/23 08:50:04;;;;;;;8.95;2.00;;;23.70;54.00;;;;;;6097619;27;83514;-61
2023/10/23 08:53:05;;;;;;;5.25;1.90;;;23.80;54.20;;;;;;6098401;28;86936;-62
2023/10/23 08:56:05;;;;;;;7.72;2.30;;;23.70;53.50;;;;;;6094931;27;81093;-62
2023/10/23 08:59:06;;;;;;;2.25;1.30;;;23.70;54.00;;;;;;6083874;27;84433;-61
2023/10/23 09:02:06;;;;;;;5.60;2.38;;;23.70;54.20;;;;;;6090367;27;80597;-61
2023/10/23 09:05:07;;;;;;;6.95;1.75;;;23.70;53.90;;;;;;6092643;28;81461;-62
2023/10/23 09:08:07;;;;;;;6.43;2.25;;;23.70;53.60;;;;;;6084602;28;81760;-61
2023/10/23 09:11:08;;;;;;;2.95;1.50;;;23.70;53.50;;;;;;6098366;28;82233;-62
2023/10/23 09:14:08;;;;;;;3.17;1.50;;;23.80;53.50;;;;;;6108557;27;81839;-60
2023/10/23 09:17:09;;;;;;;7.78;1.98;;;23.90;53.20;;;;;;6081323;28;81718;-65
2023/10/23 09:20:09;;;;;;;4.55;1.75;;;24.00;53.10;;;;;;6094299;28;81762;-64
2023/10/23 09:23:10;;;;;;;3.63;1.77;;;24.00;52.70;;;;;;6093783;27;82149;-65
2023/10/23 09:26:11;;;;;;;3.38;1.75;;;24.10;52.30;;;;;;6090765;28;81784;-64
2023/10/23 09:29:11;;;;;;;4.35;1.77;;;24.10;52.20;;;;;;6104592;28;81847;-65
2023/10/23 09:32:12;;;;;;;3.75;1.65;;;24.20;52.00;;;;;;6099667;28;81709;-65
2023/10/23 09:35:12;;;;;;;6.95;2.30;;;24.20;52.10;;;;;;6093377;28;81747;-65
2023/10/23 09:38:13;;;;;;;6.35;2.10;;;24.30;51.60;;;;;;6113236;28;81704;-65
2023/10/23 09:41:13;;;;;;;3.50;1.80;;;24.30;51.60;;;;;;6105211;27;82895;-66
2023/10/23 09:44:14;;;;;;;4.38;1.92;;;24.30;51.80;;;;;;6100337;28;82299;-65
2023/10/23 09:47:14;;;;;;;3.22;1.73;;;24.30;51.10;;;;;;6087596;28;82445;-65
2023/10/23 09:50:15;;;;;;;6.35;1.70;;;24.30;51.10;;;;;;6095864;28;83308;-65
2023/10/23 09:53:15;;;;;;;3.95;2.20;;;24.40;51.30;;;;;;6100965;27;81687;-66
2023/10/23 09:56:16;;;;;;;3.67;1.75;;;24.40;51.00;;;;;;6102586;27;81990;-66
2023/10/23 09:59:17;;;;;;;5.70;2.63;;;24.50;51.20;;;;;;6101478;27;81347;-66
2023/10/23 10:02:17;;;;;;;3.08;1.58;;;24.60;50.90;;;;;;6099702;28;80216;-65
2023/10/23 10:05:18;;;;;;;4.30;1.70;;;24.70;50.70;;;;;;6101892;27;81181;-65
2023/10/23 10:08:19;;;;;;;3.72;1.77;;;24.80;50.30;;;;;;6103819;27;80437;-64
2023/10/23 10:11:20;;;;;;;4.28;1.58;;;24.90;50.30;;;;;;6104412;27;82019;-65
2023/10/23 10:14:20;;;;;;;5.22;1.85;;;25.00;49.90;;;;;;6091262;28;82274;-65
2023/10/23 10:17:21;;;;;;;3.72;1.90;;;25.10;50.20;;;;;;6081848;28;81679;-65
2023/10/23 10:20:21;;;;;;;2.67;1.45;;;25.10;49.80;;;;;;6090850;28;89314;-65
2023/10/23 10:23:22;;;;;;;3.58;1.65;;;25.20;49.80;;;;;;6092528;28;82123;-64
2023/10/23 10:26:23;;;;;;;4.80;1.90;;;25.30;49.50;;;;;;6078991;28;82220;-63
2023/10/23 10:29:23;;;;;;;4.13;1.83;;;25.30;49.30;;;;;;6089246;27;81347;-67
2023/10/23 10:32:24;;;;;;;4.05;2.03;;;25.40;49.40;;;;;;6086413;28;80701;-61
2023/10/23 10:35:24;;;;;;;4.78;1.83;;;25.40;49.50;;;;;;6087926;28;80877;-62
2023/10/23 10:38:25;;;;;;;3.28;1.40;;;25.40;49.50;;;;;;6094036;28;81662;-62
2023/10/23 10:41:25;;;;;;;3.33;1.58;;;25.50;49.20;;;;;;6108874;27;81581;-63
2023/10/23 10:44:26;;;;;;;5.93;1.80;;;25.50;49.10;;;;;;6109858;28;82118;-61
2023/10/23 10:47:26;;;;;;;4.03;1.40;;;25.60;49.20;;;;;;6119024;28;82434;-62
2023/10/23 10:50:27;;;;;;;6.60;2.63;;;25.60;48.80;;;;;;6107945;28;81515;-62
2023/10/23 10:53:27;;;;;;;5.65;2.35;;;25.60;48.20;;;;;;6107427;28;81320;-62
2023/10/23 10:56:28;;;;;;;2.70;1.75;;;25.70;48.80;;;;;;6108274;27;82512;-62
2023/10/23 10:59:28;;;;;;;4.28;2.17;;;25.70;48.80;;;;;;6108023;28;82420;-62
2023/10/23 11:02:29;;;;;;;2.33;1.40;;;25.80;48.80;;;;;;6103604;28;82520;-61
2023/10/23 11:05:29;;;;;;;2.72;1.63;;;25.80;48.80;;;;;;6104096;28;82316;-62
2023/10/23 11:08:30;;;;;;;2.47;1.70;;;25.80;48.60;;;;;;6096899;28;83277;-67
2023/10/23 11:11:30;;;;;;;9.35;2.25;;;25.80;48.00;;;;;;6097085;28;80698;-64
2023/10/23 11:14:31;;;;;;;6.40;1.70;;;25.80;47.80;;;;;;6091454;27;80546;-64
2023/10/23 11:17:32;;;;;;;4.00;2.25;;;25.90;48.10;;;;;;6087701;28;82120;-65
2023/10/23 11:20:32;;;;;;;6.15;2.67;;;25.90;48.00;;;;;;6102089;27;82256;-64
2023/10/23 11:23:33;;;;;;;3.55;1.77;;;25.90;47.90;;;;;;6101495;27;82216;-65
2023/10/23 11:26:33;;;;;;;4.13;1.80;;;26.00;47.80;;;;;;6095273;28;82213;-65
2023/10/23 11:29:34;;;;;;;5.53;1.98;;;26.00;47.60;;;;;;6096622;28;82893;-66
2023/10/23 11:32:34;;;;;;;12.13;2.80;;;26.00;47.10;;;;;;6107357;27;81807;-64
2023/10/23 11:35:35;;;;;;;4.90;2.22;;;26.00;47.40;;;;;;6089042;28;82088;-65
2023/10/23 11:38:35;;;;;;;3.83;2.05;;;26.10;47.40;;;;;;6085037;28;82517;-67
2023/10/23 11:41:36;;;;;;;3.63;1.98;;;26.10;47.30;;;;;;6077921;27;80821;-66
2023/10/23 11:44:36;;;;;;;3.75;1.73;;;26.10;47.00;;;;;;6088487;28;80338;-62
2023/10/23 11:47:40;;;;;;;6.07;2.20;;;26.20;46.70;;;;;;6090947;28;82793;-61
2023/10/23 11:50:40;;;;;;;5.10;1.80;;;26.20;46.60;;;;;;6090476;27;82956;-63
2023/10/23 11:53:41;;;;;;;4.20;2.10;;;26.20;47.10;;;;;;6096118;27;80134;-61
2023/10/23 11:56:41;;;;;;;5.20;1.88;;;26.30;46.70;;;;;;6099197;28;80482;-61
2023/10/23 11:59:42;;;;;;;7.70;2.35;;;26.30;46.60;;;;;;6100165;28;82341;-62
2023/10/23 12:02:42;;;;;;;4.10;1.80;;;26.30;46.60;;;;;;6110141;28;82677;-63
2023/10/23 12:05:43;;;;;;;5.43;2.10;;;26.40;46.50;;;;;;6094875;27;82231;-62
2023/10/23 12:08:43;;;;;;;5.05;1.85;;;26.40;46.50;;;;;;6099363;28;82591;-62
2023/10/23 12:11:44;;;;;;;7.95;2.38;;;26.40;46.60;;;;;;6097880;27;82094;-63
2023/10/23 12:14:44;;;;;;;4.03;1.75;;;26.50;46.20;;;;;;6079123;28;81793;-62
2023/10/23 12:17:45;;;;;;;3.80;1.67;;;26.50;45.30;;;;;;6073611;28;83652;-63
2023/10/23 12:20:45;;;;;;;4.20;1.52;;;26.50;45.10;;;;;;6091703;28;81633;-64
2023/10/23 12:23:46;;;;;;;3.03;1.92;;;26.50;45.40;;;;;;6077520;28;81235;-63
2023/10/23 12:26:46;;;;;;;7.45;2.53;;;26.50;45.10;;;;;;6093831;28;80693;-62
2023/10/23 12:29:47;;;;;;;5.10;2.22;;;26.50;45.70;;;;;;6082128;28;82230;-62
2023/10/23 12:32:47;;;;;;;4.70;1.80;;;26.50;45.60;;;;;;6092691;27;80823;-60
2023/10/23 12:35:48;;;;;;;5.82;1.98;;;26.50;45.40;;;;;;6089571;28;81516;-62
2023/10/23 12:38:48;;;;;;;4.30;2.03;;;26.50;45.50;;;;;;6102338;27;83168;-62
2023/10/23 12:41:49;;;;;;;5.18;1.98;;;26.60;45.50;;;;;;6086745;28;81957;-62
2023/10/23 12:44:49;;;;;;;5.45;1.67;;;26.50;45.30;;;;;;6072124;28;82340;-62
2023/10/23 12:47:50;;;;;;;3.97;1.90;;;26.50;45.80;;;;;;6081375;28;82403;-61
2023/10/23 12:54:06;;;;;;;3.38;1.75;;;26.40;45.70;;;;;;6075806;27;76795;-64
2023/10/23 12:57:06;;;;;;;5.88;1.63;;;26.40;45.80;;;;;;6010493;28;82394;-62
2023/10/23 13:00:07;;;;;;;6.43;1.88;;;26.30;45.70;;;;;;6009690;28;82788;-67
2023/10/23 13:03:07;;;;;;;6.40;2.05;;;26.20;45.30;;;;;;6019198;28;81544;-66
2023/10/23 13:06:08;;;;;;;5.63;1.50;;;26.10;45.50;;;;;;6017142;28;82208;-67
2023/10/23 13:09:08;;;;;;;4.35;1.80;;;26.10;45.70;;;;;;6024155;28;80966;-64
2023/10/23 13:12:09;;;;;;;3.67;1.58;;;26.20;45.50;;;;;;6013380;28;81574;-67
2023/10/23 13:15:10;;;;;;;4.47;1.58;;;26.20;45.80;;;;;;6023183;28;80603;-67
2023/10/23 13:18:10;;;;;;;2.97;2.00;;;26.20;45.30;;;;;;6017378;28;82188;-68
2023/10/23 13:21:11;;;;;;;4.00;1.80;;;26.20;45.60;;;;;;6020563;28;81803;-68
2023/10/23 13:24:11;;;;;;;3.10;1.15;;;26.20;45.50;;;;;;6026000;28;81968;-70
2023/10/23 13:27:15;;;;;;;2.53;1.50;;;26.10;45.50;;;;;;6060683;28;82092;-67
2023/10/23 13:30:15;;;;;;;3.28;1.85;;;26.10;45.30;;;;;;6024205;28;82130;-67
2023/10/23 13:33:16;;;;;;;3.80;1.85;;;26.10;45.20;;;;;;6025914;28;81471;-67
2023/10/23 13:36:17;;;;;;;5.57;1.42;;;26.00;45.30;;;;;;6019480;28;81411;-70
2023/10/23 13:39:17;;;;;;;2.30;1.40;;;26.00;45.10;;;;;;6020130;28;81405;-70
2023/10/23 13:42:18;;;;;;;4.10;1.90;;;26.00;45.20;;;;;;6023159;28;83897;-69
2023/10/23 13:45:18;;;;;;;3.92;1.70;;;26.00;45.50;;;;;;6006142;28;83175;-68
2023/10/23 13:48:19;;;;;;;3.22;1.70;;;26.00;45.40;;;;;;6015034;28;83044;-68
2023/10/23 13:51:19;;;;;;;5.18;2.08;;;25.90;45.40;;;;;;6011681;28;81729;-70
2023/10/23 13:54:20;;;;;;;3.95;1.60;;;25.90;45.40;;;;;;6009307;28;82103;-66
2023/10/23 13:57:21;;;;;;;5.88;1.80;;;25.90;45.20;;;;;;6014155;28;82197;-60
2023/10/23 14:00:21;;;;;;;3.63;1.98;;;25.90;45.50;;;;;;6022907;28;82017;-60
2023/10/23 14:03:22;;;;;;;7.28;1.90;;;25.90;45.10;;;;;;6020069;28;82117;-64
2023/10/23 14:06:23;;;;;;;8.18;2.33;;;25.80;45.20;;;;;;5995115;28;82458;-62
2023/10/23 14:09:23;;;;;;;5.90;1.50;;;25.80;46.50;;;;;;5999563;28;81866;-64
2023/10/23 14:12:24;;;;;;;6.80;1.90;;;25.80;46.40;;;;;;6003337;28;82202;-64
2023/10/23 14:15:25;;;;;;;3.05;1.88;;;25.80;46.70;;;;;;6001439;28;82298;-64
2023/10/23 14:18:25;;;;;;;14.82;1.92;;;25.70;46.60;;;;;;5997242;28;80522;-65
2023/10/23 14:21:26;;;;;;;7.53;2.05;;;25.80;46.70;;;;;;5997266;28;81581;-65
2023/10/23 14:24:26;;;;;;;5.03;2.05;;;25.80;46.90;;;;;;6008641;28;81916;-65
2023/10/23 14:30:41;;;;;;;4.15;1.50;;;25.70;47.40;;;;;;6113386;27;78538;-63
2023/10/23 14:33:42;;;;;;;2.90;1.42;;;25.70;47.50;;;;;;6049356;28;82101;-66
2023/10/23 14:36:42;;;;;;;8.43;1.85;;;25.60;47.60;;;;;;6040769;28;82063;-63
2023/10/23 14:39:43;;;;;;;7.70;1.92;;;25.60;48.10;;;;;;6047438;28;82319;-66
2023/10/23 14:42:44;;;;;;;5.88;1.63;;;25.60;48.30;;;;;;6033497;28;82407;-65
2023/10/23 14:45:44;;;;;;;6.72;2.45;;;25.60;48.10;;;;;;6030310;28;81707;-64
2023/10/23 14:48:46;;;;;;;9.98;2.38;;;25.60;48.50;;;;;;6027361;28;80455;-70
2023/10/23 14:51:47;;;;;;;6.70;1.88;;;25.60;48.60;;;;;;6029772;28;82054;-70
2023/10/23 14:54:48;;;;;;;8.32;1.95;;;25.50;48.80;;;;;;6033223;28;82467;-70
2023/10/23 14:57:49;;;;;;;7.78;2.15;;;25.50;49.00;;;;;;6027020;28;82353;-70
2023/10/23 15:00:49;;;;;;;6.93;2.05;;;25.40;49.10;;;;;;6026473;28;82897;-66
2023/10/23 15:03:53;;;;;;;3.63;1.75;;;25.40;48.70;;;;;;6028846;28;81955;-74
2023/10/23 15:06:53;;;;;;;5.68;1.90;;;25.30;49.40;;;;;;6036296;28;84754;-71
2023/10/23 15:09:54;;;;;;;7.90;2.88;;;25.30;49.80;;;;;;6047059;28;84013;-73
2023/10/23 15:12:55;;;;;;;9.32;2.83;;;25.20;49.90;;;;;;6049294;28;82328;-68
2023/10/23 15:15:56;;;;;;;6.63;2.47;;;25.20;49.60;;;;;;6041952;28;81833;-68
2023/10/23 15:18:56;;;;;;;14.77;2.75;;;25.10;49.90;;;;;;6044250;28;81990;-70
2023/10/23 15:21:57;;;;;;;6.90;3.10;;;25.10;50.30;;;;;;6046518;28;83028;-67
2023/10/23 15:24:57;;;;;;;9.27;2.50;;;25.10;50.30;;;;;;6044165;28;81843;-63
2023/10/23 15:27:58;;;;;;;7.50;2.50;;;25.00;50.60;;;;;;6055424;28;81319;-64
2023/10/23 15:30:58;;;;;;;9.48;2.58;;;25.00;50.30;;;;;;6089033;27;80843;-63
2023/10/23 15:33:59;;;;;;;11.45;2.60;;;25.00;50.40;;;;;;6098062;28;82196;-66
2023/10/23 15:37:00;;;;;;;10.15;2.42;;;24.90;50.30;;;;;;6092775;27;81576;-65
2023/10/23 15:40:00;;;;;;;7.75;2.28;;;24.90;50.30;;;;;;6052950;28;80472;-66
2023/10/23 15:43:01;;;;;;;9.65;2.67;;;24.80;50.40;;;;;;6054155;28;80765;-67